Time;durP1;ratioP1;P1;durP2;ratioP2;P2;SDS_P1;SDS_P2;PMS_P1;PMS_P2;Temp;Humidity;BMP_temperature;BMP_pressure;BME280_temperature;BME280_humidity;BME280_pressure;Samples;Min_cycle;Max_cycle;Signal;HPM_P1;HPM_P2
2023/02/22 00:01:49;;;;;;;91.47;35.55;;;;;;;;;;5054485;28;20177;-78
2023/02/22 00:04:18;;;;;;;89.97;33.75;;;;;;;;;;5054700;28;20165;-78
2023/02/22 00:06:45;;;;;;;76.18;33.63;;;;;;;;;;5053388;28;20181;-79
2023/02/22 00:09:12;;;;;;;83.55;34.33;;;;;;;;;;5054556;28;20180;-78
2023/02/22 00:11:38;;;;;;;76.93;33.88;;;;;;;;;;5039519;28;20188;-78
2023/02/22 00:14:04;;;;;;;74.40;31.23;;;;;;;;;;5057243;28;20234;-78
2023/02/22 00:16:30;;;;;;;72.18;32.72;;;;;;;;;;5056665;28;20559;-78
2023/02/22 00:18:56;;;;;;;81.07;34.03;;;;;;;;;;5057638;28;20174;-78
2023/02/22 00:21:22;;;;;;;77.60;29.80;;;;;;;;;;5040599;28;20687;-78
2023/02/22 00:23:48;;;;;;;86.03;31.50;;;;;;;;;;5057394;28;20196;-78
2023/02/22 00:26:17;;;;;;;82.95;31.40;;;;;;;;;;5058600;28;20448;-78
2023/02/22 00:28:43;;;;;;;83.10;31.23;;;;;;;;;;5057393;28;20195;-78
2023/02/22 00:31:09;;;;;;;84.90;33.47;;;;;;;;;;5058552;28;20201;-78
2023/02/22 00:33:35;;;;;;;86.38;33.05;;;;;;;;;;5057206;28;20178;-78
2023/02/22 00:36:01;;;;;;;83.13;33.40;;;;;;;;;;5058392;28;20604;-79
2023/02/22 00:38:27;;;;;;;87.82;34.45;;;;;;;;;;5058175;28;20451;-78
2023/02/22 00:40:54;;;;;;;74.15;31.88;;;;;;;;;;5056696;28;20170;-79
2023/02/22 00:43:20;;;;;;;101.30;35.40;;;;;;;;;;5058349;28;20504;-79
2023/02/22 00:45:47;;;;;;;79.70;33.83;;;;;;;;;;5056640;28;20624;-78
2023/02/22 00:48:13;;;;;;;91.18;34.80;;;;;;;;;;5058148;28;20256;-78
2023/02/22 00:50:40;;;;;;;85.90;33.10;;;;;;;;;;5056691;28;20223;-78
2023/02/22 00:53:06;;;;;;;80.70;34.08;;;;;;;;;;5058258;28;20418;-79
2023/02/22 00:55:33;;;;;;;83.30;35.55;;;;;;;;;;5056738;28;20299;-78
2023/02/22 00:58:00;;;;;;;97.45;35.08;;;;;;;;;;5057067;28;20270;-78
2023/02/22 01:00:36;;;;;;;76.05;31.23;;;;;;;;;;5058298;28;20264;-78
2023/02/22 01:03:03;;;;;;;79.55;29.50;;;;;;;;;;5058558;28;20172;-79
2023/02/22 01:05:30;;;;;;;77.57;32.95;;;;;;;;;;5057915;28;20206;-78
2023/02/22 01:07:57;;;;;;;83.93;32.42;;;;;;;;;;5057820;28;20170;-78
2023/02/22 01:10:24;;;;;;;82.68;32.55;;;;;;;;;;5056385;28;20179;-79
2023/02/22 01:12:50;;;;;;;91.25;32.90;;;;;;;;;;5057518;28;20253;-79
2023/02/22 01:15:21;;;;;;;80.38;33.70;;;;;;;;;;5057098;28;20255;-79
2023/02/22 01:17:49;;;;;;;71.75;33.65;;;;;;;;;;5057919;28;20293;-79
2023/02/22 01:20:16;;;;;;;79.43;32.75;;;;;;;;;;5057673;28;20529;-79
2023/02/22 01:22:43;;;;;;;80.60;33.15;;;;;;;;;;5055539;28;20188;-78
2023/02/22 01:25:10;;;;;;;74.68;33.63;;;;;;;;;;5056467;28;20536;-79
2023/02/22 01:27:37;;;;;;;85.43;32.78;;;;;;;;;;5056628;28;20194;-79
2023/02/22 01:30:07;;;;;;;105.70;35.97;;;;;;;;;;5055890;28;20172;-78
2023/02/22 01:32:34;;;;;;;72.43;30.25;;;;;;;;;;5056104;28;20238;-79
2023/02/22 01:35:00;;;;;;;75.13;31.73;;;;;;;;;;5057282;28;20236;-78
2023/02/22 01:37:26;;;;;;;75.97;33.35;;;;;;;;;;5057573;28;20298;-78
2023/02/22 01:39:52;;;;;;;63.88;29.65;;;;;;;;;;5055910;28;20186;-78
2023/02/22 01:42:18;;;;;;;88.90;34.85;;;;;;;;;;5057212;28;20187;-78
2023/02/22 01:44:44;;;;;;;73.50;32.13;;;;;;;;;;5057238;28;20175;-78
2023/02/22 01:47:10;;;;;;;83.05;32.15;;;;;;;;;;5057284;28;20251;-78
2023/02/22 01:49:43;;;;;;;77.57;33.33;;;;;;;;;;5057173;28;20240;-78
2023/02/22 01:52:11;;;;;;;87.55;32.08;;;;;;;;;;5057137;28;20161;-78
2023/02/22 01:54:39;;;;;;;81.03;34.90;;;;;;;;;;5057458;28;20182;-78
2023/02/22 01:57:05;;;;;;;73.38;31.23;;;;;;;;;;5056152;28;20307;-78
2023/02/22 01:59:32;;;;;;;90.67;32.03;;;;;;;;;;5057273;28;20203;-79
2023/02/22 02:01:59;;;;;;;72.65;32.03;;;;;;;;;;5055654;28;20427;-79
2023/02/22 02:04:25;;;;;;;71.55;32.40;;;;;;;;;;5055462;28;20589;-79
2023/02/22 02:06:52;;;;;;;82.82;32.88;;;;;;;;;;5056739;28;20180;-78
2023/02/22 02:09:21;;;;;;;70.75;29.30;;;;;;;;;;5056425;28;20189;-79
2023/02/22 02:11:49;;;;;;;72.78;29.77;;;;;;;;;;5057229;28;20216;-78
2023/02/22 02:14:16;;;;;;;81.47;34.10;;;;;;;;;;5056805;28;20230;-78
2023/02/22 02:16:48;;;;;;;73.88;31.38;;;;;;;;;;5054780;28;20581;-78
2023/02/22 02:19:29;;;;;;;81.03;32.63;;;;;;;;;;5055576;28;20194;-79
2023/02/22 02:21:55;;;;;;;72.88;32.08;;;;;;;;;;5055608;28;20257;-78
2023/02/22 02:24:40;;;;;;;105.57;31.20;;;;;;;;;;5054857;28;20584;-78
2023/02/22 02:27:16;;;;;;;70.32;32.28;;;;;;;;;;5056340;28;20501;-78
2023/02/22 02:29:42;;;;;;;79.53;33.30;;;;;;;;;;5056629;28;20183;-78
2023/02/22 02:32:08;;;;;;;73.50;30.10;;;;;;;;;;5055767;28;20238;-78
2023/02/22 02:34:37;;;;;;;78.20;35.70;;;;;;;;;;5055173;28;20403;-78
2023/02/22 02:37:06;;;;;;;80.75;31.70;;;;;;;;;;5056423;28;20469;-79
2023/02/22 02:39:36;;;;;;;78.68;33.45;;;;;;;;;;5056437;28;20188;-78
2023/02/22 02:42:05;;;;;;;83.82;35.35;;;;;;;;;;5056407;28;20174;-78
2023/02/22 02:44:34;;;;;;;98.80;33.33;;;;;;;;;;5055761;28;20260;-78
2023/02/22 02:47:21;;;;;;;62.53;31.20;;;;;;;;;;5054931;28;20279;-78
2023/02/22 02:49:47;;;;;;;72.93;30.73;;;;;;;;;;5056078;28;20221;-78
2023/02/22 02:52:14;;;;;;;72.73;33.37;;;;;;;;;;5056543;28;20172;-79
2023/02/22 02:54:41;;;;;;;74.57;32.85;;;;;;;;;;5055883;28;20481;-78
2023/02/22 02:57:08;;;;;;;69.40;30.40;;;;;;;;;;5056883;28;20254;-79
2023/02/22 02:59:38;;;;;;;80.47;33.30;;;;;;;;;;5038712;28;20642;-79
2023/02/22 03:02:04;;;;;;;82.60;32.08;;;;;;;;;;5056654;28;20169;-79
2023/02/22 03:04:49;;;;;;;74.40;31.00;;;;;;;;;;5055461;28;20244;-78
2023/02/22 03:07:24;;;;;;;60.15;29.70;;;;;;;;;;5057467;28;20744;-79
2023/02/22 03:10:12;;;;;;;67.82;28.65;;;;;;;;;;5056665;28;20172;-79
2023/02/22 03:12:58;;;;;;;69.90;27.98;;;;;;;;;;5055650;28;20164;-78
2023/02/22 03:15:27;;;;;;;66.43;29.33;;;;;;;;;;5053902;28;20213;-79
2023/02/22 03:18:02;;;;;;;74.47;28.42;;;;;;;;;;5054782;28;20205;-79
2023/02/22 03:20:46;;;;;;;56.30;28.80;;;;;;;;;;5055964;28;20169;-78
2023/02/22 03:23:12;;;;;;;62.88;26.20;;;;;;;;;;5055758;28;20173;-79
2023/02/22 03:25:43;;;;;;;54.43;27.30;;;;;;;;;;5055909;28;20181;-78
2023/02/22 03:28:10;;;;;;;61.42;26.50;;;;;;;;;;5056142;28;20480;-78
2023/02/22 03:31:03;;;;;;;51.28;24.25;;;;;;;;;;5055570;28;20166;-78
2023/02/22 03:33:35;;;;;;;50.38;25.90;;;;;;;;;;5052382;28;20273;-78
2023/02/22 03:36:04;;;;;;;54.92;26.63;;;;;;;;;;5056306;28;20169;-79
2023/02/22 03:38:32;;;;;;;44.40;24.05;;;;;;;;;;5054382;28;20561;-79
2023/02/22 03:41:00;;;;;;;45.85;22.73;;;;;;;;;;5055488;28;20241;-79
2023/02/22 03:43:30;;;;;;;50.30;25.30;;;;;;;;;;5056096;28;20184;-79
2023/02/22 03:45:56;;;;;;;44.33;23.05;;;;;;;;;;5054752;28;20509;-78
2023/02/22 03:48:26;;;;;;;49.63;24.92;;;;;;;;;;5055615;28;20196;-79
2023/02/22 03:50:53;;;;;;;39.90;23.20;;;;;;;;;;5055928;28;20498;-79
2023/02/22 03:53:21;;;;;;;44.03;23.00;;;;;;;;;;5054531;28;20301;-79
2023/02/22 03:55:50;;;;;;;40.30;21.02;;;;;;;;;;5038168;28;20548;-79
2023/02/22 03:58:18;;;;;;;61.00;24.20;;;;;;;;;;5055578;28;20173;-78
2023/02/22 04:00:44;;;;;;;42.70;21.77;;;;;;;;;;5054113;28;20644;-78
2023/02/22 04:03:10;;;;;;;41.08;21.02;;;;;;;;;;5054523;28;20614;-78
2023/02/22 04:05:36;;;;;;;43.83;22.67;;;;;;;;;;5054090;28;20642;-79
2023/02/22 04:08:03;;;;;;;43.15;21.80;;;;;;;;;;5054833;28;20193;-78
2023/02/22 04:10:29;;;;;;;50.15;25.10;;;;;;;;;;5055303;28;20303;-78
2023/02/22 04:12:54;;;;;;;38.47;19.90;;;;;;;;;;5055213;28;20194;-78
2023/02/22 04:15:22;;;;;;;42.03;21.20;;;;;;;;;;5053723;28;20207;-81
2023/02/22 04:17:48;;;;;;;47.63;21.10;;;;;;;;;;5055263;28;20459;-78
2023/02/22 04:20:18;;;;;;;39.60;21.23;;;;;;;;;;5055351;28;20534;-78
2023/02/22 04:22:45;;;;;;;41.45;19.92;;;;;;;;;;5055186;28;20401;-78
2023/02/22 04:25:11;;;;;;;40.03;19.98;;;;;;;;;;5054976;28;20663;-78
2023/02/22 04:27:37;;;;;;;37.00;21.88;;;;;;;;;;5054658;28;20180;-78
2023/02/22 04:30:03;;;;;;;41.27;20.27;;;;;;;;;;5053620;28;20197;-78
2023/02/22 04:32:29;;;;;;;37.63;19.17;;;;;;;;;;5054815;28;20739;-78
2023/02/22 04:34:55;;;;;;;40.80;21.77;;;;;;;;;;5053818;28;20518;-78
2023/02/22 04:37:21;;;;;;;33.42;19.63;;;;;;;;;;5037308;28;20205;-78
2023/02/22 04:39:47;;;;;;;39.50;20.43;;;;;;;;;;5036820;28;20182;-78
2023/02/22 04:42:13;;;;;;;33.47;19.30;;;;;;;;;;5053334;28;20470;-78
2023/02/22 04:44:39;;;;;;;33.83;21.30;;;;;;;;;;5054907;28;20909;-79
2023/02/22 04:47:05;;;;;;;37.63;18.93;;;;;;;;;;5054581;28;20277;-78
2023/02/22 04:49:31;;;;;;;44.27;19.20;;;;;;;;;;5054590;28;20406;-79
2023/02/22 04:51:57;;;;;;;46.23;19.17;;;;;;;;;;5054427;28;20764;-78
2023/02/22 04:54:23;;;;;;;42.80;17.85;;;;;;;;;;5054449;28;20404;-82
2023/02/22 04:56:49;;;;;;;33.42;18.83;;;;;;;;;;5054935;28;20206;-78
2023/02/22 04:59:15;;;;;;;31.88;17.38;;;;;;;;;;5056037;28;20232;-78
2023/02/22 05:01:41;;;;;;;27.77;17.98;;;;;;;;;;5058216;28;20229;-78
2023/02/22 05:04:07;;;;;;;33.83;18.80;;;;;;;;;;5058390;28;20181;-78
2023/02/22 05:06:33;;;;;;;33.38;19.00;;;;;;;;;;5058319;28;20416;-78
2023/02/22 05:08:59;;;;;;;35.88;17.90;;;;;;;;;;5057130;28;20174;-78
2023/02/22 05:11:25;;;;;;;31.13;19.00;;;;;;;;;;5056784;28;20188;-79
2023/02/22 05:13:51;;;;;;;34.45;18.67;;;;;;;;;;5058170;28;20229;-78
2023/02/22 05:16:18;;;;;;;35.07;18.80;;;;;;;;;;5056652;28;20217;-78
2023/02/22 05:18:44;;;;;;;34.40;19.55;;;;;;;;;;5058296;28;20479;-78
2023/02/22 05:21:10;;;;;;;30.35;18.23;;;;;;;;;;5058497;28;20181;-78
2023/02/22 05:23:36;;;;;;;62.58;19.60;;;;;;;;;;5058346;28;20173;-78
2023/02/22 05:26:02;;;;;;;33.42;18.58;;;;;;;;;;5057780;28;20192;-78
2023/02/22 05:28:28;;;;;;;30.83;17.83;;;;;;;;;;5056432;28;20183;-78
2023/02/22 05:30:54;;;;;;;41.95;19.15;;;;;;;;;;5057722;28;20403;-79
2023/02/22 05:33:20;;;;;;;35.77;20.73;;;;;;;;;;5056756;28;20524;-78
2023/02/22 05:35:46;;;;;;;37.40;20.30;;;;;;;;;;5058013;28;20498;-78
2023/02/22 05:38:15;;;;;;;35.72;19.65;;;;;;;;;;5056827;28;20482;-78
2023/02/22 05:40:41;;;;;;;34.65;19.98;;;;;;;;;;5057911;28;20185;-78
2023/02/22 05:43:08;;;;;;;35.17;20.17;;;;;;;;;;5057934;28;20216;-78
2023/02/22 05:45:35;;;;;;;36.40;20.42;;;;;;;;;;5057668;28;20199;-78
2023/02/22 05:48:01;;;;;;;32.88;19.38;;;;;;;;;;5058016;28;20177;-78
2023/02/22 05:50:27;;;;;;;33.03;20.23;;;;;;;;;;5057468;28;20653;-82
2023/02/22 05:52:53;;;;;;;30.02;18.65;;;;;;;;;;5057655;28;20177;-78
2023/02/22 05:55:21;;;;;;;31.60;20.00;;;;;;;;;;5056424;28;20179;-78
2023/02/22 05:57:47;;;;;;;34.67;20.00;;;;;;;;;;5057152;28;20201;-78
2023/02/22 06:00:17;;;;;;;30.27;19.27;;;;;;;;;;5040231;28;20182;-78
2023/02/22 06:02:43;;;;;;;29.90;16.33;;;;;;;;;;5057353;28;20629;-79
2023/02/22 06:05:09;;;;;;;29.30;17.70;;;;;;;;;;5057448;28;20184;-79
2023/02/22 06:07:35;;;;;;;30.17;18.70;;;;;;;;;;5055672;28;20778;-79
2023/02/22 06:10:01;;;;;;;28.43;18.07;;;;;;;;;;5056879;28;20423;-79
2023/02/22 06:12:27;;;;;;;32.33;18.63;;;;;;;;;;5057335;28;20499;-82
2023/02/22 06:14:53;;;;;;;28.50;17.73;;;;;;;;;;5056113;28;20963;-78
2023/02/22 06:17:19;;;;;;;28.25;17.88;;;;;;;;;;5057447;28;20460;-79
2023/02/22 06:19:45;;;;;;;33.10;20.00;;;;;;;;;;5056491;28;20203;-78
2023/02/22 06:22:16;;;;;;;35.70;19.50;;;;;;;;;;5055902;28;20847;-78
2023/02/22 06:24:41;;;;;;;33.53;19.23;;;;;;;;;;5056929;28;20883;-78
2023/02/22 06:27:07;;;;;;;32.70;18.83;;;;;;;;;;5057645;28;20181;-78
2023/02/22 06:29:33;;;;;;;32.17;19.20;;;;;;;;;;5056780;28;20922;-79
2023/02/22 06:31:59;;;;;;;35.20;20.00;;;;;;;;;;5057210;28;20411;-78
2023/02/22 06:34:25;;;;;;;30.67;17.27;;;;;;;;;;5057641;28;20404;-78
2023/02/22 06:36:51;;;;;;;31.20;18.30;;;;;;;;;;5056919;28;20472;-78
2023/02/22 06:39:17;;;;;;;34.58;19.58;;;;;;;;;;5057198;28;20796;-78
2023/02/22 06:41:44;;;;;;;36.63;22.10;;;;;;;;;;5057276;28;20170;-78
2023/02/22 06:44:10;;;;;;;34.80;19.95;;;;;;;;;;5055888;28;20185;-78
2023/02/22 06:46:37;;;;;;;30.88;19.40;;;;;;;;;;5056922;28;20209;-78
2023/02/22 06:49:03;;;;;;;31.58;19.13;;;;;;;;;;5056176;28;20178;-78
2023/02/22 06:51:29;;;;;;;35.22;19.92;;;;;;;;;;5057600;28;20493;-79
2023/02/22 06:53:55;;;;;;;35.80;19.30;;;;;;;;;;5057045;28;20190;-77
2023/02/22 06:56:21;;;;;;;32.72;19.98;;;;;;;;;;5058002;28;20224;-77
2023/02/22 06:58:48;;;;;;;33.95;19.17;;;;;;;;;;5056317;28;20178;-78
2023/02/22 07:01:14;;;;;;;35.45;19.85;;;;;;;;;;5056908;28;20170;-78
2023/02/22 07:03:41;;;;;;;37.70;21.83;;;;;;;;;;5056050;28;20202;-78
2023/02/22 07:06:07;;;;;;;34.70;19.88;;;;;;;;;;5057422;28;20515;-78
2023/02/22 07:08:33;;;;;;;33.45;20.40;;;;;;;;;;5057304;28;20533;-78
2023/02/22 07:10:59;;;;;;;35.30;20.88;;;;;;;;;;5056861;28;20182;-78
2023/02/22 07:13:25;;;;;;;33.30;19.30;;;;;;;;;;5055368;28;20260;-78
2023/02/22 07:15:52;;;;;;;35.45;21.27;;;;;;;;;;5056052;28;20185;-78
2023/02/22 07:18:18;;;;;;;36.58;19.48;;;;;;;;;;5055733;28;20241;-78
2023/02/22 07:20:44;;;;;;;36.60;20.52;;;;;;;;;;5055855;28;20176;-78
2023/02/22 07:23:13;;;;;;;31.13;18.77;;;;;;;;;;5054585;28;20524;-78
2023/02/22 07:25:39;;;;;;;36.83;20.23;;;;;;;;;;5054334;28;20412;-78
2023/02/22 07:28:04;;;;;;;37.27;20.73;;;;;;;;;;5056605;28;20192;-78
2023/02/22 07:30:32;;;;;;;36.67;20.30;;;;;;;;;;5056263;28;20412;-78
2023/02/22 07:33:00;;;;;;;32.03;18.10;;;;;;;;;;5054641;28;20423;-78
2023/02/22 07:35:30;;;;;;;32.20;19.50;;;;;;;;;;5056080;28;20204;-78
2023/02/22 07:37:56;;;;;;;28.98;17.60;;;;;;;;;;5055702;28;20197;-77
2023/02/22 07:40:23;;;;;;;32.50;18.70;;;;;;;;;;5038290;28;20639;-77
2023/02/22 07:42:53;;;;;;;63.85;21.40;;;;;;;;;;5056038;28;20174;-77
2023/02/22 07:45:19;;;;;;;31.55;19.67;;;;;;;;;;5054995;28;20178;-77
2023/02/22 07:47:46;;;;;;;34.63;18.35;;;;;;;;;;5055789;28;20767;-78
2023/02/22 07:50:17;;;;;;;33.30;18.70;;;;;;;;;;5055107;28;20177;-77
2023/02/22 07:52:47;;;;;;;35.65;19.88;;;;;;;;;;5056330;28;20252;-77
2023/02/22 07:55:15;;;;;;;33.53;19.05;;;;;;;;;;5055883;28;20598;-78
2023/02/22 07:57:41;;;;;;;34.08;19.80;;;;;;;;;;5056399;28;20196;-77
2023/02/22 08:00:07;;;;;;;34.37;19.50;;;;;;;;;;5038162;28;20640;-77
2023/02/22 08:02:33;;;;;;;33.05;20.25;;;;;;;;;;5055546;28;20419;-78
2023/02/22 08:04:59;;;;;;;33.03;18.87;;;;;;;;;;5054658;28;20182;-77
2023/02/22 08:07:25;;;;;;;32.77;19.17;;;;;;;;;;5056423;28;20486;-77
2023/02/22 08:09:51;;;;;;;36.00;19.65;;;;;;;;;;5054546;28;20876;-77
2023/02/22 08:12:17;;;;;;;34.73;20.00;;;;;;;;;;5055428;28;20209;-77
2023/02/22 08:14:43;;;;;;;40.60;21.03;;;;;;;;;;5055771;28;20817;-77
2023/02/22 08:17:09;;;;;;;31.20;18.80;;;;;;;;;;5055410;28;20526;-77
2023/02/22 08:19:35;;;;;;;35.65;18.52;;;;;;;;;;5053902;28;20204;-80
2023/02/22 08:22:01;;;;;;;34.00;19.53;;;;;;;;;;5037838;28;20192;-77
2023/02/22 08:24:27;;;;;;;39.00;21.20;;;;;;;;;;5054924;28;20396;-77
2023/02/22 08:26:53;;;;;;;34.85;18.30;;;;;;;;;;5055397;28;20421;-77
2023/02/22 08:29:21;;;;;;;39.90;19.33;;;;;;;;;;5055435;28;20188;-77
2023/02/22 08:31:52;;;;;;;36.85;19.92;;;;;;;;;;5054181;28;20445;-77
2023/02/22 08:34:19;;;;;;;36.05;17.25;;;;;;;;;;5058621;28;20180;-79
2023/02/22 08:36:45;;;;;;;29.75;17.50;;;;;;;;;;5059211;28;20204;-79
2023/02/22 08:39:11;;;;;;;33.05;18.33;;;;;;;;;;5057885;28;20182;-79
2023/02/22 08:41:37;;;;;;;36.15;17.65;;;;;;;;;;5059842;28;20226;-82
2023/02/22 08:44:03;;;;;;;30.13;16.17;;;;;;;;;;5059497;28;20185;-79
2023/02/22 08:46:29;;;;;;;27.50;15.43;;;;;;;;;;5058783;28;20536;-79
2023/02/22 08:48:55;;;;;;;28.90;15.97;;;;;;;;;;5059240;28;20192;-79
2023/02/22 08:51:21;;;;;;;25.58;15.05;;;;;;;;;;5059573;28;20415;-79
2023/02/22 08:53:47;;;;;;;25.08;15.45;;;;;;;;;;5059371;28;20173;-79
2023/02/22 08:56:13;;;;;;;29.15;14.23;;;;;;;;;;5059199;28;20264;-79
2023/02/22 08:58:39;;;;;;;23.15;14.55;;;;;;;;;;5058927;28;20260;-78
2023/02/22 09:01:05;;;;;;;20.33;12.73;;;;;;;;;;5059568;28;20231;-79
2023/02/22 09:03:31;;;;;;;21.02;14.18;;;;;;;;;;5058292;28;20416;-79
2023/02/22 09:06:00;;;;;;;18.30;12.40;;;;;;;;;;5057784;28;20526;-79
2023/02/22 09:08:26;;;;;;;18.80;11.65;;;;;;;;;;5057858;28;20192;-79
2023/02/22 09:10:52;;;;;;;20.80;12.77;;;;;;;;;;5058491;28;20178;-79
2023/02/22 09:13:18;;;;;;;18.70;11.30;;;;;;;;;;5058362;28;20229;-79
2023/02/22 09:15:45;;;;;;;17.83;11.47;;;;;;;;;;5058997;28;20188;-79
2023/02/22 09:18:13;;;;;;;16.00;11.15;;;;;;;;;;5059226;28;20988;-79
2023/02/22 09:20:39;;;;;;;16.13;11.13;;;;;;;;;;5058785;28;20248;-81
2023/02/22 09:23:06;;;;;;;22.20;11.70;;;;;;;;;;5057729;28;20306;-79
2023/02/22 09:25:33;;;;;;;19.15;11.20;;;;;;;;;;5059482;28;20170;-79
2023/02/22 09:27:59;;;;;;;16.77;11.20;;;;;;;;;;5058310;28;20351;-79
2023/02/22 09:30:25;;;;;;;21.42;10.40;;;;;;;;;;5058826;28;20181;-78
2023/02/22 09:32:52;;;;;;;19.42;11.40;;;;;;;;;;5056809;28;20191;-79
2023/02/22 09:35:19;;;;;;;18.45;11.65;;;;;;;;;;5058687;28;20243;-79
2023/02/22 09:37:45;;;;;;;16.50;11.10;;;;;;;;;;5058490;28;20217;-79
2023/02/22 09:40:23;;;;;;;16.95;11.13;;;;;;;;;;5057289;28;20192;-79
2023/02/22 09:42:55;;;;;;;18.40;11.07;;;;;;;;;;5058593;28;20541;-79
2023/02/22 09:45:23;;;;;;;19.20;12.15;;;;;;;;;;5056563;28;20181;-79
2023/02/22 09:47:53;;;;;;;15.15;10.88;;;;;;;;;;5056355;28;20177;-79
2023/02/22 09:50:28;;;;;;;14.77;10.02;;;;;;;;;;5057167;28;20622;-79
2023/02/22 09:53:14;;;;;;;14.93;10.10;;;;;;;;;;5057947;28;20177;-79
2023/02/22 09:55:41;;;;;;;17.55;10.05;;;;;;;;;;5057905;28;20170;-79
2023/02/22 09:58:19;;;;;;;16.70;10.77;;;;;;;;;;5057949;28;20213;-77
2023/02/22 10:00:46;;;;;;;13.63;10.05;;;;;;;;;;5057978;28;20173;-79
2023/02/22 10:03:33;;;;;;;14.82;10.30;;;;;;;;;;5057745;28;20235;-79
2023/02/22 10:06:13;;;;;;;15.57;10.35;;;;;;;;;;5056059;28;20189;-79
2023/02/22 10:08:40;;;;;;;11.97;8.90;;;;;;;;;;5056670;28;20169;-78
2023/02/22 10:11:25;;;;;;;16.60;9.00;;;;;;;;;;5057938;28;20414;-79
2023/02/22 10:13:51;;;;;;;13.43;8.57;;;;;;;;;;5056973;28;20805;-79
2023/02/22 10:16:17;;;;;;;12.00;8.70;;;;;;;;;;5057148;28;20411;-79
2023/02/22 10:18:46;;;;;;;14.50;9.10;;;;;;;;;;5057353;28;20880;-81
2023/02/22 10:21:39;;;;;;;12.60;8.93;;;;;;;;;;5056389;28;20462;-79
2023/02/22 10:24:22;;;;;;;18.20;9.83;;;;;;;;;;5040125;28;20410;-79
2023/02/22 10:26:48;;;;;;;12.90;8.93;;;;;;;;;;5056868;28;20420;-79
2023/02/22 10:29:33;;;;;;;9.90;8.03;;;;;;;;;;5054957;28;20788;-79
2023/02/22 10:32:00;;;;;;;11.60;8.20;;;;;;;;;;5056564;28;20400;-79
2023/02/22 10:34:29;;;;;;;12.00;7.50;;;;;;;;;;5056440;28;20979;-79
2023/02/22 10:36:58;;;;;;;11.80;8.13;;;;;;;;;;5056865;28;20455;-79
2023/02/22 10:39:30;;;;;;;10.17;7.50;;;;;;;;;;5055276;28;20743;-79
2023/02/22 10:41:57;;;;;;;12.77;8.37;;;;;;;;;;5054918;28;20416;-79
2023/02/22 10:44:23;;;;;;;10.43;7.40;;;;;;;;;;5056544;28;20448;-79
2023/02/22 10:46:52;;;;;;;13.03;8.00;;;;;;;;;;5055842;28;20763;-79
2023/02/22 10:49:20;;;;;;;9.77;6.97;;;;;;;;;;5055028;28;20425;-79
2023/02/22 10:51:48;;;;;;;8.73;6.67;;;;;;;;;;5056316;28;20474;-80
2023/02/22 10:54:14;;;;;;;9.43;7.33;;;;;;;;;;5055632;28;20977;-78
2023/02/22 10:56:54;;;;;;;10.50;7.30;;;;;;;;;;5055943;28;20951;-79
2023/02/22 10:59:34;;;;;;;10.43;7.10;;;;;;;;;;5056108;28;20452;-79
2023/02/22 11:02:01;;;;;;;9.17;6.60;;;;;;;;;;5056339;28;20436;-79
2023/02/22 11:04:27;;;;;;;11.97;7.17;;;;;;;;;;5056151;28;20408;-80
2023/02/22 11:07:05;;;;;;;11.00;7.90;;;;;;;;;;5056211;28;20419;-79
2023/02/22 11:09:31;;;;;;;12.03;7.00;;;;;;;;;;5055976;28;20412;-79
2023/02/22 11:12:08;;;;;;;10.30;7.77;;;;;;;;;;5037716;28;20780;-79
2023/02/22 11:14:34;;;;;;;13.30;8.07;;;;;;;;;;5055123;28;20495;-79
2023/02/22 11:17:00;;;;;;;8.97;7.17;;;;;;;;;;5037596;28;20839;-79
2023/02/22 11:19:28;;;;;;;13.83;6.93;;;;;;;;;;5055594;28;20450;-79
2023/02/22 11:21:59;;;;;;;11.50;6.90;;;;;;;;;;5053804;28;20434;-79
2023/02/22 11:24:26;;;;;;;8.57;6.47;;;;;;;;;;5054037;28;20390;-81
2023/02/22 11:26:57;;;;;;;10.03;7.37;;;;;;;;;;5054583;28;20770;-79
2023/02/22 11:29:26;;;;;;;10.63;6.70;;;;;;;;;;5054798;28;20551;-79
2023/02/22 11:31:54;;;;;;;9.17;5.90;;;;;;;;;;5054624;28;20391;-79
2023/02/22 11:34:26;;;;;;;8.80;6.73;;;;;;;;;;5053155;28;20406;-79
2023/02/22 11:36:52;;;;;;;12.60;7.30;;;;;;;;;;5053050;28;20492;-79
2023/02/22 11:39:26;;;;;;;8.10;6.80;;;;;;;;;;5054369;28;20885;-78
2023/02/22 11:41:53;;;;;;;9.47;6.80;;;;;;;;;;5053515;28;20407;-79
2023/02/22 11:44:29;;;;;;;8.60;6.70;;;;;;;;;;5054371;28;20431;-78
2023/02/22 11:47:00;;;;;;;10.90;7.50;;;;;;;;;;5054356;28;20780;-78
2023/02/22 11:49:34;;;;;;;10.77;6.77;;;;;;;;;;5054252;28;20411;-79
2023/02/22 11:52:00;;;;;;;8.00;6.60;;;;;;;;;;5053549;28;20868;-78
2023/02/22 11:54:30;;;;;;;8.03;6.43;;;;;;;;;;5052576;28;20438;-78
2023/02/22 11:57:22;;;;;;;12.37;6.60;;;;;;;;;;5053926;28;20847;-78
2023/02/22 12:00:23;;;;;;;13.10;6.10;;;;;;;;;;5036988;28;20461;-80
2023/02/22 12:02:49;;;;;;;9.23;6.47;;;;;;;;;;5052653;28;20390;-80
2023/02/22 12:05:25;;;;;;;7.83;6.50;;;;;;;;;;5052751;28;20837;-79
2023/02/22 12:07:56;;;;;;;8.40;6.27;;;;;;;;;;5053317;28;20453;-79
2023/02/22 12:10:37;;;;;;;7.50;5.80;;;;;;;;;;5053712;28;20408;-79
2023/02/22 12:13:10;;;;;;;7.83;6.60;;;;;;;;;;5053147;28;20412;-79
2023/02/22 12:15:43;;;;;;;9.93;6.57;;;;;;;;;;5052670;28;20437;-79
2023/02/22 12:18:28;;;;;;;8.10;5.00;;;;;;;;;;5051971;28;20450;-79
2023/02/22 12:20:56;;;;;;;7.13;5.00;;;;;;;;;;5053123;28;20404;-79
2023/02/22 12:23:22;;;;;;;7.43;5.07;;;;;;;;;;5054082;28;20403;-79
2023/02/22 12:26:01;;;;;;;9.90;5.70;;;;;;;;;;5053618;28;20409;-79
2023/02/22 12:28:30;;;;;;;7.43;5.20;;;;;;;;;;5053770;28;20408;-79
2023/02/22 12:31:15;;;;;;;7.40;5.30;;;;;;;;;;5053501;28;20387;-79
2023/02/22 12:33:54;;;;;;;6.57;5.07;;;;;;;;;;5053696;28;20449;-78
2023/02/22 12:36:24;;;;;;;10.53;5.30;;;;;;;;;;5052149;28;20402;-78
2023/02/22 12:38:54;;;;;;;6.10;4.97;;;;;;;;;;5052230;28;20927;-81
2023/02/22 12:41:38;;;;;;;7.30;5.57;;;;;;;;;;5053190;28;20914;-78
2023/02/22 12:44:04;;;;;;;8.70;5.30;;;;;;;;;;5053275;28;20424;-78
2023/02/22 12:46:34;;;;;;;8.63;5.37;;;;;;;;;;5052341;28;20431;-79
2023/02/22 12:49:09;;;;;;;10.57;5.53;;;;;;;;;;5052077;28;20466;-79
2023/02/22 12:51:35;;;;;;;7.10;5.23;;;;;;;;;;5052259;28;20805;-79
2023/02/22 12:54:07;;;;;;;8.33;5.30;;;;;;;;;;5051772;28;20506;-79
2023/02/22 12:56:50;;;;;;;7.60;6.20;;;;;;;;;;5053022;28;20495;-78
2023/02/22 12:59:23;;;;;;;10.17;7.60;;;;;;;;;;5051955;28;20416;-79
2023/02/22 13:01:57;;;;;;;10.33;6.20;;;;;;;;;;5053218;28;20801;-78
2023/02/22 13:04:23;;;;;;;9.40;6.43;;;;;;;;;;5053415;28;20388;-79
2023/02/22 13:07:01;;;;;;;8.90;6.13;;;;;;;;;;5052837;28;20754;-78
2023/02/22 13:09:46;;;;;;;7.97;5.70;;;;;;;;;;5053204;28;20704;-78
2023/02/22 13:12:24;;;;;;;8.10;5.23;;;;;;;;;;5052645;28;20393;-78
2023/02/22 13:15:13;;;;;;;7.80;6.00;;;;;;;;;;5053124;28;20468;-79
2023/02/22 13:17:58;;;;;;;7.77;6.10;;;;;;;;;;5042520;28;20500;-79
2023/02/22 13:20:24;;;;;;;6.83;5.23;;;;;;;;;;5055579;28;20531;-78
2023/02/22 13:22:50;;;;;;;8.33;6.20;;;;;;;;;;5056170;28;20411;-79
2023/02/22 13:25:20;;;;;;;7.63;6.37;;;;;;;;;;5056021;28;20714;-79
2023/02/22 13:27:49;;;;;;;9.23;5.90;;;;;;;;;;5056368;28;20412;-79
2023/02/22 13:30:22;;;;;;;9.03;6.53;;;;;;;;;;5054529;28;20859;-78
2023/02/22 13:33:03;;;;;;;8.30;6.43;;;;;;;;;;5054706;28;20401;-78
2023/02/22 13:35:35;;;;;;;8.70;6.63;;;;;;;;;;5054479;28;20958;-79
2023/02/22 13:38:20;;;;;;;8.20;6.40;;;;;;;;;;5054185;28;20439;-79
2023/02/22 13:41:04;;;;;;;9.63;5.80;;;;;;;;;;5055823;28;20382;-78
2023/02/22 13:43:45;;;;;;;10.47;6.17;;;;;;;;;;5056051;28;20429;-79
2023/02/22 13:46:20;;;;;;;9.00;5.90;;;;;;;;;;5054309;28;20435;-78
2023/02/22 13:48:50;;;;;;;8.33;6.47;;;;;;;;;;5055911;28;20466;-78
2023/02/22 13:51:16;;;;;;;7.73;5.93;;;;;;;;;;5055516;28;20383;-78
2023/02/22 13:54:05;;;;;;;8.73;6.10;;;;;;;;;;5055883;28;20390;-78
2023/02/22 13:56:31;;;;;;;7.20;5.73;;;;;;;;;;5048631;28;20470;-79
2023/02/22 13:59:02;;;;;;;9.07;6.90;;;;;;;;;;5053966;28;20387;-78
2023/02/22 14:01:44;;;;;;;9.73;6.60;;;;;;;;;;5054395;28;20469;-78
2023/02/22 14:04:19;;;;;;;9.03;7.30;;;;;;;;;;5055252;28;20873;-79
2023/02/22 14:06:45;;;;;;;8.67;7.30;;;;;;;;;;5055400;28;20777;-78
2023/02/22 14:09:18;;;;;;;12.03;6.80;;;;;;;;;;5055153;28;20506;-78
2023/02/22 14:11:46;;;;;;;10.27;7.20;;;;;;;;;;5055951;28;20378;-78
2023/02/22 14:14:16;;;;;;;10.90;6.80;;;;;;;;;;5054982;28;20483;-78
2023/02/22 14:16:42;;;;;;;9.30;7.13;;;;;;;;;;5055375;28;20434;-78
2023/02/22 14:19:16;;;;;;;9.50;6.73;;;;;;;;;;5053700;28;20836;-78
2023/02/22 14:22:00;;;;;;;9.73;7.03;;;;;;;;;;5055008;28;20831;-79
2023/02/22 14:24:27;;;;;;;7.73;6.33;;;;;;;;;;5055252;28;20415;-78
2023/02/22 14:26:59;;;;;;;8.67;7.23;;;;;;;;;;5055397;28;20408;-79
2023/02/22 14:29:25;;;;;;;13.00;7.23;;;;;;;;;;5054970;28;20415;-78
2023/02/22 14:31:51;;;;;;;10.40;7.27;;;;;;;;;;5055079;28;20408;-78
2023/02/22 14:34:36;;;;;;;10.13;8.37;;;;;;;;;;5053674;28;20424;-79
2023/02/22 14:37:23;;;;;;;7.37;6.40;;;;;;;;;;5053095;28;20459;-78